sensor_id;sensor_type;location;lat;lon;timestamp;temperature;humidity
14585;DHT22;7379;51.506;11.876;2023-08-07T00:01:34;19.60;68.10
14585;DHT22;7379;51.506;11.876;2023-08-07T00:04:00;19.60;68.10
14585;DHT22;7379;51.506;11.876;2023-08-07T00:06:27;19.60;68.20
14585;DHT22;7379;51.506;11.876;2023-08-07T00:08:54;19.60;68.20
14585;DHT22;7379;51.506;11.876;2023-08-07T00:11:21;19.50;68.20
14585;DHT22;7379;51.506;11.876;2023-08-07T00:13:49;19.60;68.30
14585;DHT22;7379;51.506;11.876;2023-08-07T00:16:15;19.50;68.40
14585;DHT22;7379;51.506;11.876;2023-08-07T00:18:42;19.50;68.40
14585;DHT22;7379;51.506;11.876;2023-08-07T00:21:09;19.50;68.50
14585;DHT22;7379;51.506;11.876;2023-08-07T00:23:36;19.50;68.50
14585;DHT22;7379;51.506;11.876;2023-08-07T00:26:02;19.50;68.70
14585;DHT22;7379;51.506;11.876;2023-08-07T00:28:29;19.50;68.70
14585;DHT22;7379;51.506;11.876;2023-08-07T00:30:57;19.40;68.70
14585;DHT22;7379;51.506;11.876;2023-08-07T00:33:24;19.40;68.80
14585;DHT22;7379;51.506;11.876;2023-08-07T00:35:51;19.40;68.90
14585;DHT22;7379;51.506;11.876;2023-08-07T00:38:17;19.40;68.90
14585;DHT22;7379;51.506;11.876;2023-08-07T00:40:44;19.40;68.90
14585;DHT22;7379;51.506;11.876;2023-08-07T00:43:11;19.40;69.00
14585;DHT22;7379;51.506;11.876;2023-08-07T00:45:40;19.40;69.10
14585;DHT22;7379;51.506;11.876;2023-08-07T00:48:10;19.30;69.00
14585;DHT22;7379;51.506;11.876;2023-08-07T00:50:38;19.30;69.10
14585;DHT22;7379;51.506;11.876;2023-08-07T00:53:05;19.30;69.20
14585;DHT22;7379;51.506;11.876;2023-08-07T00:55:32;19.30;69.20
14585;DHT22;7379;51.506;11.876;2023-08-07T00:57:59;19.30;69.30
14585;DHT22;7379;51.506;11.876;2023-08-07T01:00:26;19.30;69.30
14585;DHT22;7379;51.506;11.876;2023-08-07T01:02:54;19.30;69.40
14585;DHT22;7379;51.506;11.876;2023-08-07T01:05:24;19.30;69.40
14585;DHT22;7379;51.506;11.876;2023-08-07T01:07:53;19.20;69.30
14585;DHT22;7379;51.506;11.876;2023-08-07T01:10:25;19.30;69.40
14585;DHT22;7379;51.506;11.876;2023-08-07T01:13:03;19.20;69.30
14585;DHT22;7379;51.506;11.876;2023-08-07T01:15:32;19.20;69.30
14585;DHT22;7379;51.506;11.876;2023-08-07T01:17:59;19.20;69.40
14585;DHT22;7379;51.506;11.876;2023-08-07T01:20:28;19.20;69.50
14585;DHT22;7379;51.506;11.876;2023-08-07T01:22:56;19.20;69.50
14585;DHT22;7379;51.506;11.876;2023-08-07T01:25:23;19.10;69.50
14585;DHT22;7379;51.506;11.876;2023-08-07T01:27:54;19.10;69.40
14585;DHT22;7379;51.506;11.876;2023-08-07T01:30:28;19.10;69.50
14585;DHT22;7379;51.506;11.876;2023-08-07T01:33:03;19.10;69.60
14585;DHT22;7379;51.506;11.876;2023-08-07T01:35:34;19.10;69.50
14585;DHT22;7379;51.506;11.876;2023-08-07T01:38:03;19.10;69.50
14585;DHT22;7379;51.506;11.876;2023-08-07T01:40:31;19.10;69.50
14585;DHT22;7379;51.506;11.876;2023-08-07T01:42:58;19.10;69.60
14585;DHT22;7379;51.506;11.876;2023-08-07T01:45:25;19.10;69.60
14585;DHT22;7379;51.506;11.876;2023-08-07T01:47:52;19.10;69.60
14585;DHT22;7379;51.506;11.876;2023-08-07T01:50:19;19.10;69.60
14585;DHT22;7379;51.506;11.876;2023-08-07T01:52:46;19.00;69.70
14585;DHT22;7379;51.506;11.876;2023-08-07T01:55:15;19.00;69.70
14585;DHT22;7379;51.506;11.876;2023-08-07T01:57:42;19.00;69.80
14585;DHT22;7379;51.506;11.876;2023-08-07T02:00:10;19.00;69.80
14585;DHT22;7379;51.506;11.876;2023-08-07T02:02:37;19.00;69.80
14585;DHT22;7379;51.506;11.876;2023-08-07T02:05:06;19.00;69.80
14585;DHT22;7379;51.506;11.876;2023-08-07T02:07:33;19.00;69.80
14585;DHT22;7379;51.506;11.876;2023-08-07T02:10:00;19.00;69.80
14585;DHT22;7379;51.506;11.876;2023-08-07T02:12:28;18.90;69.70
14585;DHT22;7379;51.506;11.876;2023-08-07T02:14:57;18.90;69.70
14585;DHT22;7379;51.506;11.876;2023-08-07T02:17:24;18.90;69.70
14585;DHT22;7379;51.506;11.876;2023-08-07T02:19:51;18.90;69.70
14585;DHT22;7379;51.506;11.876;2023-08-07T02:22:18;18.90;69.70
14585;DHT22;7379;51.506;11.876;2023-08-07T02:24:44;18.90;69.60
14585;DHT22;7379;51.506;11.876;2023-08-07T02:27:11;18.90;69.70
14585;DHT22;7379;51.506;11.876;2023-08-07T02:29:40;18.90;69.70
14585;DHT22;7379;51.506;11.876;2023-08-07T02:32:07;18.90;69.70
14585;DHT22;7379;51.506;11.876;2023-08-07T02:34:33;18.90;69.70
14585;DHT22;7379;51.506;11.876;2023-08-07T02:37:00;18.80;69.60
14585;DHT22;7379;51.506;11.876;2023-08-07T02:39:27;18.80;69.70
14585;DHT22;7379;51.506;11.876;2023-08-07T02:41:53;18.80;69.60
14585;DHT22;7379;51.506;11.876;2023-08-07T02:44:20;18.80;69.70
14585;DHT22;7379;51.506;11.876;2023-08-07T02:46:48;18.80;69.80
14585;DHT22;7379;51.506;11.876;2023-08-07T02:49:15;18.80;69.80
14585;DHT22;7379;51.506;11.876;2023-08-07T02:51:42;18.80;69.80
14585;DHT22;7379;51.506;11.876;2023-08-07T02:54:08;18.80;69.80
14585;DHT22;7379;51.506;11.876;2023-08-07T02:56:35;18.80;69.80
14585;DHT22;7379;51.506;11.876;2023-08-07T02:59:02;18.80;69.90
14585;DHT22;7379;51.506;11.876;2023-08-07T03:01:28;18.80;70.00
14585;DHT22;7379;51.506;11.876;2023-08-07T03:03:56;18.70;69.80
14585;DHT22;7379;51.506;11.876;2023-08-07T03:06:23;18.70;70.00
14585;DHT22;7379;51.506;11.876;2023-08-07T03:08:50;18.70;70.00
14585;DHT22;7379;51.506;11.876;2023-08-07T03:11:17;18.70;70.10
14585;DHT22;7379;51.506;11.876;2023-08-07T03:13:44;18.70;70.10
14585;DHT22;7379;51.506;11.876;2023-08-07T03:16:10;18.70;70.20
14585;DHT22;7379;51.506;11.876;2023-08-07T03:18:37;18.70;70.20
14585;DHT22;7379;51.506;11.876;2023-08-07T03:21:05;18.70;70.20
14585;DHT22;7379;51.506;11.876;2023-08-07T03:23:32;18.60;70.10
14585;DHT22;7379;51.506;11.876;2023-08-07T03:26:02;18.60;70.10
14585;DHT22;7379;51.506;11.876;2023-08-07T03:28:30;18.60;70.20
14585;DHT22;7379;51.506;11.876;2023-08-07T03:30:56;18.60;70.20
14585;DHT22;7379;51.506;11.876;2023-08-07T03:33:23;18.60;70.30
14585;DHT22;7379;51.506;11.876;2023-08-07T03:35:50;18.60;70.30
14585;DHT22;7379;51.506;11.876;2023-08-07T03:38:18;18.60;70.30
14585;DHT22;7379;51.506;11.876;2023-08-07T03:40:45;18.60;70.30
14585;DHT22;7379;51.506;11.876;2023-08-07T03:43:12;18.60;70.30
14585;DHT22;7379;51.506;11.876;2023-08-07T03:45:39;18.50;70.30
14585;DHT22;7379;51.506;11.876;2023-08-07T03:48:06;18.50;70.30
14585;DHT22;7379;51.506;11.876;2023-08-07T03:50:34;18.50;70.40
14585;DHT22;7379;51.506;11.876;2023-08-07T03:53:02;18.50;70.40
14585;DHT22;7379;51.506;11.876;2023-08-07T03:55:31;18.50;70.40
14585;DHT22;7379;51.506;11.876;2023-08-07T03:57:57;18.50;70.40
14585;DHT22;7379;51.506;11.876;2023-08-07T04:00:24;18.50;70.50
14585;DHT22;7379;51.506;11.876;2023-08-07T04:02:51;18.50;70.50
14585;DHT22;7379;51.506;11.876;2023-08-07T04:05:17;18.50;70.50
14585;DHT22;7379;51.506;11.876;2023-08-07T04:07:44;18.40;70.40
14585;DHT22;7379;51.506;11.876;2023-08-07T04:10:11;18.40;70.50
14585;DHT22;7379;51.506;11.876;2023-08-07T04:12:39;18.40;70.50
14585;DHT22;7379;51.506;11.876;2023-08-07T04:15:07;18.40;70.60
14585;DHT22;7379;51.506;11.876;2023-08-07T04:17:34;18.40;70.60
14585;DHT22;7379;51.506;11.876;2023-08-07T04:20:01;18.40;70.70
14585;DHT22;7379;51.506;11.876;2023-08-07T04:22:29;18.40;70.70
14585;DHT22;7379;51.506;11.876;2023-08-07T04:24:56;18.40;70.80
14585;DHT22;7379;51.506;11.876;2023-08-07T04:27:22;18.40;70.70
14585;DHT22;7379;51.506;11.876;2023-08-07T04:29:51;18.40;70.80
14585;DHT22;7379;51.506;11.876;2023-08-07T04:32:17;18.30;70.70
14585;DHT22;7379;51.506;11.876;2023-08-07T04:34:44;18.30;71.50
14585;DHT22;7379;51.506;11.876;2023-08-07T04:37:11;18.30;70.70
14585;DHT22;7379;51.506;11.876;2023-08-07T04:39:37;18.30;70.70
14585;DHT22;7379;51.506;11.876;2023-08-07T04:42:04;18.30;70.80
14585;DHT22;7379;51.506;11.876;2023-08-07T04:44:32;18.30;70.80
14585;DHT22;7379;51.506;11.876;2023-08-07T04:47:00;18.30;70.80
14585;DHT22;7379;51.506;11.876;2023-08-07T04:49:26;18.30;70.70
14585;DHT22;7379;51.506;11.876;2023-08-07T04:51:53;18.30;70.70
14585;DHT22;7379;51.506;11.876;2023-08-07T04:54:20;18.30;70.80
14585;DHT22;7379;51.506;11.876;2023-08-07T04:56:46;18.30;70.80
14585;DHT22;7379;51.506;11.876;2023-08-07T04:59:14;18.30;70.80
14585;DHT22;7379;51.506;11.876;2023-08-07T05:01:40;18.30;70.90
14585;DHT22;7379;51.506;11.876;2023-08-07T05:04:08;18.20;70.80
14585;DHT22;7379;51.506;11.876;2023-08-07T05:06:35;18.30;70.90
14585;DHT22;7379;51.506;11.876;2023-08-07T05:09:02;18.20;70.80
14585;DHT22;7379;51.506;11.876;2023-08-07T05:11:29;18.20;70.90
14585;DHT22;7379;51.506;11.876;2023-08-07T05:13:56;18.20;70.90
14585;DHT22;7379;51.506;11.876;2023-08-07T05:16:23;18.20;70.90
14585;DHT22;7379;51.506;11.876;2023-08-07T05:18:50;18.20;70.90
14585;DHT22;7379;51.506;11.876;2023-08-07T05:21:18;18.20;70.90
14585;DHT22;7379;51.506;11.876;2023-08-07T05:23:44;18.20;70.90
14585;DHT22;7379;51.506;11.876;2023-08-07T05:26:13;18.20;71.00
14585;DHT22;7379;51.506;11.876;2023-08-07T05:28:39;18.20;71.00
14585;DHT22;7379;51.506;11.876;2023-08-07T05:31:06;18.20;71.00
14585;DHT22;7379;51.506;11.876;2023-08-07T05:33:33;18.20;71.10
14585;DHT22;7379;51.506;11.876;2023-08-07T05:35:59;18.20;71.10
14585;DHT22;7379;51.506;11.876;2023-08-07T05:38:27;18.20;71.10
14585;DHT22;7379;51.506;11.876;2023-08-07T05:40:54;18.20;71.10
14585;DHT22;7379;51.506;11.876;2023-08-07T05:43:21;18.20;71.10
14585;DHT22;7379;51.506;11.876;2023-08-07T05:45:48;18.10;71.00
14585;DHT22;7379;51.506;11.876;2023-08-07T05:48:15;18.10;71.10
14585;DHT22;7379;51.506;11.876;2023-08-07T05:50:42;18.10;71.00
14585;DHT22;7379;51.506;11.876;2023-08-07T05:53:08;18.10;71.10
14585;DHT22;7379;51.506;11.876;2023-08-07T05:55:39;18.10;71.10
14585;DHT22;7379;51.506;11.876;2023-08-07T05:58:06;18.10;71.10
14585;DHT22;7379;51.506;11.876;2023-08-07T06:00:33;18.10;71.10
14585;DHT22;7379;51.506;11.876;2023-08-07T06:03:00;18.10;71.10
14585;DHT22;7379;51.506;11.876;2023-08-07T06:05:27;18.10;71.20
14585;DHT22;7379;51.506;11.876;2023-08-07T06:07:53;18.10;71.20
14585;DHT22;7379;51.506;11.876;2023-08-07T06:10:20;18.10;71.10
14585;DHT22;7379;51.506;11.876;2023-08-07T06:12:48;18.10;71.10
14585;DHT22;7379;51.506;11.876;2023-08-07T06:15:15;18.10;71.20
14585;DHT22;7379;51.506;11.876;2023-08-07T06:17:42;18.10;71.20
14585;DHT22;7379;51.506;11.876;2023-08-07T06:20:09;18.10;71.20
14585;DHT22;7379;51.506;11.876;2023-08-07T06:22:37;18.10;72.00
14585;DHT22;7379;51.506;11.876;2023-08-07T06:25:05;18.10;71.30
14585;DHT22;7379;51.506;11.876;2023-08-07T06:27:32;18.10;71.30
14585;DHT22;7379;51.506;11.876;2023-08-07T06:30:00;18.10;71.30
14585;DHT22;7379;51.506;11.876;2023-08-07T06:32:27;18.10;71.40
14585;DHT22;7379;51.506;11.876;2023-08-07T06:34:54;18.10;71.40
14585;DHT22;7379;51.506;11.876;2023-08-07T06:37:21;18.10;71.40
14585;DHT22;7379;51.506;11.876;2023-08-07T06:39:47;18.10;71.40
14585;DHT22;7379;51.506;11.876;2023-08-07T06:42:14;18.10;71.30
14585;DHT22;7379;51.506;11.876;2023-08-07T06:44:41;18.10;71.40
14585;DHT22;7379;51.506;11.876;2023-08-07T06:47:09;18.10;71.40
14585;DHT22;7379;51.506;11.876;2023-08-07T06:49:36;18.10;71.50
14585;DHT22;7379;51.506;11.876;2023-08-07T06:52:03;18.10;71.50
14585;DHT22;7379;51.506;11.876;2023-08-07T06:54:30;18.10;71.50
14585;DHT22;7379;51.506;11.876;2023-08-07T06:56:56;18.10;71.50
14585;DHT22;7379;51.506;11.876;2023-08-07T06:59:23;18.10;71.50
14585;DHT22;7379;51.506;11.876;2023-08-07T07:01:50;18.10;71.50
14585;DHT22;7379;51.506;11.876;2023-08-07T07:04:18;18.10;71.50
14585;DHT22;7379;51.506;11.876;2023-08-07T07:06:45;18.10;71.70
14585;DHT22;7379;51.506;11.876;2023-08-07T07:09:12;18.10;71.60
14585;DHT22;7379;51.506;11.876;2023-08-07T07:11:42;18.10;71.70
14585;DHT22;7379;51.506;11.876;2023-08-07T07:14:09;18.10;71.70
14585;DHT22;7379;51.506;11.876;2023-08-07T07:16:36;18.10;71.60
14585;DHT22;7379;51.506;11.876;2023-08-07T07:19:03;18.10;71.50
14585;DHT22;7379;51.506;11.876;2023-08-07T07:21:33;18.10;71.50
14585;DHT22;7379;51.506;11.876;2023-08-07T07:24:00;18.10;71.50
14585;DHT22;7379;51.506;11.876;2023-08-07T07:26:27;18.10;71.60
14585;DHT22;7379;51.506;11.876;2023-08-07T07:28:54;18.10;71.60
14585;DHT22;7379;51.506;11.876;2023-08-07T07:31:20;18.10;71.50
14585;DHT22;7379;51.506;11.876;2023-08-07T07:33:48;18.10;71.50
14585;DHT22;7379;51.506;11.876;2023-08-07T07:36:15;18.10;71.50
14585;DHT22;7379;51.506;11.876;2023-08-07T07:38:45;18.10;71.50
14585;DHT22;7379;51.506;11.876;2023-08-07T07:41:12;18.10;71.50
14585;DHT22;7379;51.506;11.876;2023-08-07T07:43:39;18.10;71.50
14585;DHT22;7379;51.506;11.876;2023-08-07T07:46:06;18.10;71.50
14585;DHT22;7379;51.506;11.876;2023-08-07T07:48:33;18.10;71.50
14585;DHT22;7379;51.506;11.876;2023-08-07T07:51:00;18.10;71.50
14585;DHT22;7379;51.506;11.876;2023-08-07T07:53:27;18.10;71.50
14585;DHT22;7379;51.506;11.876;2023-08-07T07:55:55;18.10;71.50
14585;DHT22;7379;51.506;11.876;2023-08-07T07:58:21;18.10;71.50
14585;DHT22;7379;51.506;11.876;2023-08-07T08:00:48;18.10;71.50
14585;DHT22;7379;51.506;11.876;2023-08-07T08:03:17;18.10;71.60
14585;DHT22;7379;51.506;11.876;2023-08-07T08:05:44;18.10;71.70
14585;DHT22;7379;51.506;11.876;2023-08-07T08:08:11;18.10;71.60
14585;DHT22;7379;51.506;11.876;2023-08-07T08:10:38;18.10;71.60
14585;DHT22;7379;51.506;11.876;2023-08-07T08:13:08;18.20;71.70
14585;DHT22;7379;51.506;11.876;2023-08-07T08:15:35;18.20;71.60
14585;DHT22;7379;51.506;11.876;2023-08-07T08:18:02;18.20;71.50
14585;DHT22;7379;51.506;11.876;2023-08-07T08:20:28;18.20;71.50
14585;DHT22;7379;51.506;11.876;2023-08-07T08:22:56;18.20;71.60
14585;DHT22;7379;51.506;11.876;2023-08-07T08:25:23;18.20;71.40
14585;DHT22;7379;51.506;11.876;2023-08-07T08:27:50;18.20;71.40
14585;DHT22;7379;51.506;11.876;2023-08-07T08:30:18;18.20;71.30
14585;DHT22;7379;51.506;11.876;2023-08-07T08:32:44;18.20;71.40
14585;DHT22;7379;51.506;11.876;2023-08-07T08:35:11;18.20;71.50
14585;DHT22;7379;51.506;11.876;2023-08-07T08:37:38;18.10;71.40
14585;DHT22;7379;51.506;11.876;2023-08-07T08:40:07;18.20;71.50
14585;DHT22;7379;51.506;11.876;2023-08-07T08:42:35;18.20;71.40
14585;DHT22;7379;51.506;11.876;2023-08-07T08:45:05;18.20;71.40
14585;DHT22;7379;51.506;11.876;2023-08-07T08:47:36;18.20;71.30
14585;DHT22;7379;51.506;11.876;2023-08-07T08:50:07;18.20;71.30
14585;DHT22;7379;51.506;11.876;2023-08-07T08:52:36;18.20;71.30
14585;DHT22;7379;51.506;11.876;2023-08-07T08:55:04;18.20;71.40
14585;DHT22;7379;51.506;11.876;2023-08-07T08:57:32;18.20;71.40
14585;DHT22;7379;51.506;11.876;2023-08-07T09:00:00;18.20;71.30
14585;DHT22;7379;51.506;11.876;2023-08-07T09:02:30;18.30;71.40
14585;DHT22;7379;51.506;11.876;2023-08-07T09:04:58;18.30;71.30
14585;DHT22;7379;51.506;11.876;2023-08-07T09:07:27;18.30;71.20
14585;DHT22;7379;51.506;11.876;2023-08-07T09:09:55;18.30;71.10
14585;DHT22;7379;51.506;11.876;2023-08-07T09:12:26;18.30;71.00
14585;DHT22;7379;51.506;11.876;2023-08-07T09:14:56;18.30;71.00
14585;DHT22;7379;51.506;11.876;2023-08-07T09:17:24;18.30;70.90
14585;DHT22;7379;51.506;11.876;2023-08-07T09:19:51;18.30;70.80
14585;DHT22;7379;51.506;11.876;2023-08-07T09:22:20;18.30;70.70
14585;DHT22;7379;51.506;11.876;2023-08-07T09:24:46;18.30;70.70
14585;DHT22;7379;51.506;11.876;2023-08-07T09:27:13;18.30;70.70
14585;DHT22;7379;51.506;11.876;2023-08-07T09:29:40;18.30;70.70
14585;DHT22;7379;51.506;11.876;2023-08-07T09:32:08;18.20;70.70
14585;DHT22;7379;51.506;11.876;2023-08-07T09:34:35;18.20;70.90
14585;DHT22;7379;51.506;11.876;2023-08-07T09:37:02;18.20;71.10
14585;DHT22;7379;51.506;11.876;2023-08-07T09:39:31;18.20;71.20
14585;DHT22;7379;51.506;11.876;2023-08-07T09:41:58;18.20;71.30
14585;DHT22;7379;51.506;11.876;2023-08-07T09:44:25;18.20;71.40
14585;DHT22;7379;51.506;11.876;2023-08-07T09:46:51;18.20;71.60
14585;DHT22;7379;51.506;11.876;2023-08-07T09:49:18;18.20;71.70
14585;DHT22;7379;51.506;11.876;2023-08-07T09:51:46;18.20;71.90
14585;DHT22;7379;51.506;11.876;2023-08-07T09:54:16;18.20;72.00
14585;DHT22;7379;51.506;11.876;2023-08-07T09:56:44;18.20;72.10
14585;DHT22;7379;51.506;11.876;2023-08-07T09:59:13;18.10;72.10
14585;DHT22;7379;51.506;11.876;2023-08-07T10:01:40;18.20;72.30
14585;DHT22;7379;51.506;11.876;2023-08-07T10:04:09;18.20;72.40
14585;DHT22;7379;51.506;11.876;2023-08-07T10:06:41;18.20;72.40
14585;DHT22;7379;51.506;11.876;2023-08-07T10:09:08;18.20;72.50
14585;DHT22;7379;51.506;11.876;2023-08-07T10:11:35;18.20;72.60
14585;DHT22;7379;51.506;11.876;2023-08-07T10:14:03;18.20;73.40
14585;DHT22;7379;51.506;11.876;2023-08-07T10:16:30;18.20;73.30
14585;DHT22;7379;51.506;11.876;2023-08-07T10:18:58;18.20;73.40
14585;DHT22;7379;51.506;11.876;2023-08-07T10:21:25;18.20;73.50
14585;DHT22;7379;51.506;11.876;2023-08-07T10:23:53;18.20;73.60
14585;DHT22;7379;51.506;11.876;2023-08-07T10:26:20;18.20;73.60
14585;DHT22;7379;51.506;11.876;2023-08-07T10:28:49;18.20;73.40
14585;DHT22;7379;51.506;11.876;2023-08-07T10:31:19;18.20;73.20
14585;DHT22;7379;51.506;11.876;2023-08-07T10:33:46;18.20;73.00
14585;DHT22;7379;51.506;11.876;2023-08-07T10:36:16;18.20;72.90
14585;DHT22;7379;51.506;11.876;2023-08-07T10:38:43;18.20;72.90
14585;DHT22;7379;51.506;11.876;2023-08-07T10:41:12;18.20;73.00
14585;DHT22;7379;51.506;11.876;2023-08-07T10:43:40;18.20;73.20
14585;DHT22;7379;51.506;11.876;2023-08-07T10:46:10;18.30;73.30
14585;DHT22;7379;51.506;11.876;2023-08-07T10:48:42;18.30;73.20
14585;DHT22;7379;51.506;11.876;2023-08-07T10:51:12;18.30;73.20
14585;DHT22;7379;51.506;11.876;2023-08-07T10:53:41;18.30;73.20
14585;DHT22;7379;51.506;11.876;2023-08-07T10:56:14;18.30;73.10
14585;DHT22;7379;51.506;11.876;2023-08-07T10:58:41;18.30;73.90
14585;DHT22;7379;51.506;11.876;2023-08-07T11:01:19;18.30;73.20
14585;DHT22;7379;51.506;11.876;2023-08-07T11:03:48;18.40;73.40
14585;DHT22;7379;51.506;11.876;2023-08-07T11:06:16;18.40;73.20
14585;DHT22;7379;51.506;11.876;2023-08-07T11:08:43;18.40;73.10
14585;DHT22;7379;51.506;11.876;2023-08-07T11:11:10;18.40;73.00
14585;DHT22;7379;51.506;11.876;2023-08-07T11:13:37;18.50;73.00
14585;DHT22;7379;51.506;11.876;2023-08-07T11:16:04;18.50;73.60
14585;DHT22;7379;51.506;11.876;2023-08-07T11:18:31;18.50;72.60
14585;DHT22;7379;51.506;11.876;2023-08-07T11:20:59;18.50;72.20
14585;DHT22;7379;51.506;11.876;2023-08-07T11:23:27;18.50;72.00
14585;DHT22;7379;51.506;11.876;2023-08-07T11:25:54;18.60;71.90
14585;DHT22;7379;51.506;11.876;2023-08-07T11:28:21;18.50;71.70
14585;DHT22;7379;51.506;11.876;2023-08-07T11:30:50;18.50;71.60
14585;DHT22;7379;51.506;11.876;2023-08-07T11:33:17;18.60;71.70
14585;DHT22;7379;51.506;11.876;2023-08-07T11:35:45;18.60;71.50
14585;DHT22;7379;51.506;11.876;2023-08-07T11:38:17;18.60;71.30
14585;DHT22;7379;51.506;11.876;2023-08-07T11:40:56;18.50;71.10
14585;DHT22;7379;51.506;11.876;2023-08-07T11:43:22;18.50;71.10
14585;DHT22;7379;51.506;11.876;2023-08-07T11:45:50;18.50;71.10
14585;DHT22;7379;51.506;11.876;2023-08-07T11:48:16;18.60;71.10
14585;DHT22;7379;51.506;11.876;2023-08-07T11:50:43;18.60;71.00
14585;DHT22;7379;51.506;11.876;2023-08-07T11:53:10;18.50;70.80
14585;DHT22;7379;51.506;11.876;2023-08-07T11:55:46;18.50;70.70
14585;DHT22;7379;51.506;11.876;2023-08-07T11:58:13;18.50;70.70
14585;DHT22;7379;51.506;11.876;2023-08-07T12:00:43;18.50;70.80
14585;DHT22;7379;51.506;11.876;2023-08-07T12:03:23;18.50;71.00
14585;DHT22;7379;51.506;11.876;2023-08-07T12:05:51;18.50;71.00
14585;DHT22;7379;51.506;11.876;2023-08-07T12:08:17;18.50;70.90
14585;DHT22;7379;51.506;11.876;2023-08-07T12:10:49;18.50;70.90
14585;DHT22;7379;51.506;11.876;2023-08-07T12:13:16;18.50;70.90
14585;DHT22;7379;51.506;11.876;2023-08-07T12:15:42;18.50;70.80
14585;DHT22;7379;51.506;11.876;2023-08-07T12:18:09;18.50;71.10
14585;DHT22;7379;51.506;11.876;2023-08-07T12:20:37;18.50;71.70
14585;DHT22;7379;51.506;11.876;2023-08-07T12:23:04;18.40;72.00
14585;DHT22;7379;51.506;11.876;2023-08-07T12:25:31;18.40;72.30
14585;DHT22;7379;51.506;11.876;2023-08-07T12:27:59;18.40;72.60
14585;DHT22;7379;51.506;11.876;2023-08-07T12:30:25;18.40;72.90
14585;DHT22;7379;51.506;11.876;2023-08-07T12:32:52;18.40;73.30
14585;DHT22;7379;51.506;11.876;2023-08-07T12:35:19;18.40;73.40
14585;DHT22;7379;51.506;11.876;2023-08-07T12:37:45;18.40;73.70
14585;DHT22;7379;51.506;11.876;2023-08-07T12:40:12;18.40;73.90
14585;DHT22;7379;51.506;11.876;2023-08-07T12:42:41;18.30;73.80
14585;DHT22;7379;51.506;11.876;2023-08-07T12:45:10;18.40;74.20
14585;DHT22;7379;51.506;11.876;2023-08-07T12:47:36;18.40;74.00
14585;DHT22;7379;51.506;11.876;2023-08-07T12:50:04;18.30;73.80
14585;DHT22;7379;51.506;11.876;2023-08-07T12:52:31;18.30;73.80
14585;DHT22;7379;51.506;11.876;2023-08-07T12:54:58;18.30;73.80
14585;DHT22;7379;51.506;11.876;2023-08-07T12:57:25;18.30;73.90
14585;DHT22;7379;51.506;11.876;2023-08-07T12:59:52;18.30;73.90
14585;DHT22;7379;51.506;11.876;2023-08-07T13:02:20;18.30;73.90
14585;DHT22;7379;51.506;11.876;2023-08-07T13:04:47;18.30;73.90
14585;DHT22;7379;51.506;11.876;2023-08-07T13:07:14;18.30;73.90
14585;DHT22;7379;51.506;11.876;2023-08-07T13:09:40;18.30;74.30
14585;DHT22;7379;51.506;11.876;2023-08-07T13:12:07;18.40;76.00
14585;DHT22;7379;51.506;11.876;2023-08-07T13:14:34;18.60;76.10
14585;DHT22;7379;51.506;11.876;2023-08-07T13:17:01;18.80;75.80
14585;DHT22;7379;51.506;11.876;2023-08-07T13:19:29;18.80;74.60
14585;DHT22;7379;51.506;11.876;2023-08-07T13:21:55;18.80;74.40
14585;DHT22;7379;51.506;11.876;2023-08-07T13:24:22;18.80;74.40
14585;DHT22;7379;51.506;11.876;2023-08-07T13:26:49;18.80;74.00
14585;DHT22;7379;51.506;11.876;2023-08-07T13:29:15;18.80;73.50
14585;DHT22;7379;51.506;11.876;2023-08-07T13:31:42;18.80;73.60
14585;DHT22;7379;51.506;11.876;2023-08-07T13:34:11;18.70;73.50
14585;DHT22;7379;51.506;11.876;2023-08-07T13:36:39;18.70;73.30
14585;DHT22;7379;51.506;11.876;2023-08-07T13:39:06;18.60;72.90
14585;DHT22;7379;51.506;11.876;2023-08-07T13:41:34;18.60;73.20
14585;DHT22;7379;51.506;11.876;2023-08-07T13:44:01;18.60;72.60
14585;DHT22;7379;51.506;11.876;2023-08-07T13:46:28;18.50;72.40
14585;DHT22;7379;51.506;11.876;2023-08-07T13:48:55;18.50;72.40
14585;DHT22;7379;51.506;11.876;2023-08-07T13:51:23;18.40;72.50
14585;DHT22;7379;51.506;11.876;2023-08-07T13:53:51;18.40;72.50
14585;DHT22;7379;51.506;11.876;2023-08-07T13:56:18;18.30;72.40
14585;DHT22;7379;51.506;11.876;2023-08-07T13:58:45;18.30;72.40
14585;DHT22;7379;51.506;11.876;2023-08-07T14:01:12;18.30;72.40
14585;DHT22;7379;51.506;11.876;2023-08-07T14:03:38;18.30;72.40
14585;DHT22;7379;51.506;11.876;2023-08-07T14:06:05;18.30;72.40
14585;DHT22;7379;51.506;11.876;2023-08-07T14:08:32;18.30;72.50
14585;DHT22;7379;51.506;11.876;2023-08-07T14:11:01;18.30;72.50
14585;DHT22;7379;51.506;11.876;2023-08-07T14:13:28;18.20;72.60
14585;DHT22;7379;51.506;11.876;2023-08-07T14:15:55;18.40;74.30
14585;DHT22;7379;51.506;11.876;2023-08-07T14:18:22;18.70;74.50
14585;DHT22;7379;51.506;11.876;2023-08-07T14:20:49;18.90;72.60
14585;DHT22;7379;51.506;11.876;2023-08-07T14:23:15;18.90;72.20
14585;DHT22;7379;51.506;11.876;2023-08-07T14:25:42;18.80;72.10
14585;DHT22;7379;51.506;11.876;2023-08-07T14:28:11;18.70;72.00
14585;DHT22;7379;51.506;11.876;2023-08-07T14:30:37;18.70;72.00
14585;DHT22;7379;51.506;11.876;2023-08-07T14:33:04;18.60;72.60
14585;DHT22;7379;51.506;11.876;2023-08-07T14:35:31;18.80;72.40
14585;DHT22;7379;51.506;11.876;2023-08-07T14:37:57;19.10;72.20
14585;DHT22;7379;51.506;11.876;2023-08-07T14:40:24;19.40;70.90
14585;DHT22;7379;51.506;11.876;2023-08-07T14:42:51;19.70;69.90
14585;DHT22;7379;51.506;11.876;2023-08-07T14:45:20;19.60;69.00
14585;DHT22;7379;51.506;11.876;2023-08-07T14:47:48;19.50;69.40
14585;DHT22;7379;51.506;11.876;2023-08-07T14:50:15;19.40;69.80
14585;DHT22;7379;51.506;11.876;2023-08-07T14:52:42;19.20;69.90
14585;DHT22;7379;51.506;11.876;2023-08-07T14:55:08;19.10;69.70
14585;DHT22;7379;51.506;11.876;2023-08-07T14:57:35;19.00;69.60
14585;DHT22;7379;51.506;11.876;2023-08-07T15:00:02;18.90;69.20
14585;DHT22;7379;51.506;11.876;2023-08-07T15:02:32;18.80;69.00
14585;DHT22;7379;51.506;11.876;2023-08-07T15:04:59;18.70;68.80
14585;DHT22;7379;51.506;11.876;2023-08-07T15:07:25;18.60;68.80
14585;DHT22;7379;51.506;11.876;2023-08-07T15:09:52;18.50;68.70
14585;DHT22;7379;51.506;11.876;2023-08-07T15:12:19;18.50;68.30
14585;DHT22;7379;51.506;11.876;2023-08-07T15:14:46;18.50;67.60
14585;DHT22;7379;51.506;11.876;2023-08-07T15:17:13;18.70;66.70
14585;DHT22;7379;51.506;11.876;2023-08-07T15:19:41;18.80;66.60
14585;DHT22;7379;51.506;11.876;2023-08-07T15:22:08;18.90;67.10
14585;DHT22;7379;51.506;11.876;2023-08-07T15:24:34;18.90;66.80
14585;DHT22;7379;51.506;11.876;2023-08-07T15:27:01;19.00;66.20
14585;DHT22;7379;51.506;11.876;2023-08-07T15:29:28;19.00;66.50
14585;DHT22;7379;51.506;11.876;2023-08-07T15:31:54;18.90;66.70